sensor_id;sensor_type;location;lat;lon;timestamp;pressure;altitude;pressure_sealevel;temperature;humidity
77288;BME280;66345;42.694;23.346;2023-05-07T00:02:20;95740.66;;;10.61;75.71
77288;BME280;66345;42.694;23.346;2023-05-07T00:04:46;95757.31;;;10.70;75.27
77288;BME280;66345;42.694;23.346;2023-05-07T00:07:11;95755.34;;;10.49;75.60
77288;BME280;66345;42.694;23.346;2023-05-07T00:09:36;95754.25;;;10.28;76.56
77288;BME280;66345;42.694;23.346;2023-05-07T00:12:02;95759.91;;;10.25;76.37
77288;BME280;66345;42.694;23.346;2023-05-07T00:14:27;95747.16;;;10.21;76.70
77288;BME280;66345;42.694;23.346;2023-05-07T00:16:53;95753.97;;;10.38;76.23
77288;BME280;66345;42.694;23.346;2023-05-07T00:19:18;95751.69;;;10.50;75.44
77288;BME280;66345;42.694;23.346;2023-05-07T00:21:44;95738.97;;;10.31;75.38
77288;BME280;66345;42.694;23.346;2023-05-07T00:24:09;95745.19;;;10.38;75.65
77288;BME280;66345;42.694;23.346;2023-05-07T00:26:34;95743.03;;;10.18;76.54
77288;BME280;66345;42.694;23.346;2023-05-07T00:29:00;95736.97;;;10.10;77.05
77288;BME280;66345;42.694;23.346;2023-05-07T00:31:25;95736.06;;;10.17;76.23
77288;BME280;66345;42.694;23.346;2023-05-07T00:33:51;95727.91;;;10.04;76.57
77288;BME280;66345;42.694;23.346;2023-05-07T00:36:16;95747.28;;;10.05;77.78
77288;BME280;66345;42.694;23.346;2023-05-07T00:38:41;95744.69;;;9.96;77.30
77288;BME280;66345;42.694;23.346;2023-05-07T00:41:07;95742.75;;;10.13;76.86
77288;BME280;66345;42.694;23.346;2023-05-07T00:43:32;95745.59;;;9.89;77.39
77288;BME280;66345;42.694;23.346;2023-05-07T00:45:58;95740.53;;;9.79;77.71
77288;BME280;66345;42.694;23.346;2023-05-07T00:48:24;95751.56;;;9.91;78.02
77288;BME280;66345;42.694;23.346;2023-05-07T00:50:50;95746.16;;;9.84;77.21
77288;BME280;66345;42.694;23.346;2023-05-07T00:53:16;95741.38;;;9.57;78.84
77288;BME280;66345;42.694;23.346;2023-05-07T00:55:41;95752.16;;;9.55;78.95
77288;BME280;66345;42.694;23.346;2023-05-07T00:58:07;95753.16;;;9.54;79.00
77288;BME280;66345;42.694;23.346;2023-05-07T01:00:33;95748.53;;;9.48;79.38
77288;BME280;66345;42.694;23.346;2023-05-07T01:02:58;95747.09;;;9.45;79.41
77288;BME280;66345;42.694;23.346;2023-05-07T01:05:24;95757.53;;;9.39;79.98
77288;BME280;66345;42.694;23.346;2023-05-07T01:07:52;95757.81;;;9.44;79.70
77288;BME280;66345;42.694;23.346;2023-05-07T01:10:18;95755.66;;;9.48;79.50
77288;BME280;66345;42.694;23.346;2023-05-07T01:12:44;95759.09;;;9.56;78.72
77288;BME280;66345;42.694;23.346;2023-05-07T01:15:11;95750.75;;;9.67;78.41
77288;BME280;66345;42.694;23.346;2023-05-07T01:17:38;95753.22;;;9.69;78.68
77288;BME280;66345;42.694;23.346;2023-05-07T01:20:05;95754.38;;;9.66;78.50
77288;BME280;66345;42.694;23.346;2023-05-07T01:22:36;95748.84;;;9.76;77.79
77288;BME280;66345;42.694;23.346;2023-05-07T01:25:03;95758.69;;;9.67;78.08
77288;BME280;66345;42.694;23.346;2023-05-07T01:27:28;95758.13;;;9.49;79.31
77288;BME280;66345;42.694;23.346;2023-05-07T01:29:54;95759.72;;;9.58;78.64
77288;BME280;66345;42.694;23.346;2023-05-07T01:32:24;95749.75;;;9.68;77.72
77288;BME280;66345;42.694;23.346;2023-05-07T01:34:52;95748.97;;;9.83;77.05
77288;BME280;66345;42.694;23.346;2023-05-07T01:37:19;95751.50;;;9.76;77.18
77288;BME280;66345;42.694;23.346;2023-05-07T01:39:46;95756.75;;;9.61;77.73
77288;BME280;66345;42.694;23.346;2023-05-07T01:42:12;95752.44;;;9.60;77.53
77288;BME280;66345;42.694;23.346;2023-05-07T01:44:37;95753.34;;;9.76;76.98
77288;BME280;66345;42.694;23.346;2023-05-07T01:47:03;95746.72;;;9.49;77.50
77288;BME280;66345;42.694;23.346;2023-05-07T01:49:29;95745.94;;;9.40;77.97
77288;BME280;66345;42.694;23.346;2023-05-07T01:51:55;95732.53;;;9.64;76.20
77288;BME280;66345;42.694;23.346;2023-05-07T01:54:25;95731.84;;;9.70;75.18
77288;BME280;66345;42.694;23.346;2023-05-07T01:56:53;95722.50;;;9.74;74.41
77288;BME280;66345;42.694;23.346;2023-05-07T01:59:18;95721.41;;;9.69;74.20
77288;BME280;66345;42.694;23.346;2023-05-07T02:01:44;95726.91;;;9.67;74.61
77288;BME280;66345;42.694;23.346;2023-05-07T02:04:09;95727.72;;;9.68;74.14
77288;BME280;66345;42.694;23.346;2023-05-07T02:06:34;95721.88;;;9.72;73.89
77288;BME280;66345;42.694;23.346;2023-05-07T02:09:00;95712.84;;;9.82;73.75
77288;BME280;66345;42.694;23.346;2023-05-07T02:11:25;95708.03;;;9.85;73.77
77288;BME280;66345;42.694;23.346;2023-05-07T02:13:51;95702.72;;;9.85;73.79
77288;BME280;66345;42.694;23.346;2023-05-07T02:16:16;95701.47;;;9.96;73.44
77288;BME280;66345;42.694;23.346;2023-05-07T02:18:41;95708.53;;;10.04;72.92
77288;BME280;66345;42.694;23.346;2023-05-07T02:21:07;95707.59;;;9.96;73.48
77288;BME280;66345;42.694;23.346;2023-05-07T02:23:32;95707.81;;;10.10;73.31
77288;BME280;66345;42.694;23.346;2023-05-07T02:25:58;95706.91;;;10.17;73.18
77288;BME280;66345;42.694;23.346;2023-05-07T02:28:23;95713.66;;;10.05;73.94
77288;BME280;66345;42.694;23.346;2023-05-07T02:30:48;95709.72;;;10.01;74.25
77288;BME280;66345;42.694;23.346;2023-05-07T02:33:14;95704.78;;;9.98;74.44
77288;BME280;66345;42.694;23.346;2023-05-07T02:35:40;95706.94;;;9.94;74.96
77288;BME280;66345;42.694;23.346;2023-05-07T02:38:05;95702.84;;;9.92;75.15
77288;BME280;66345;42.694;23.346;2023-05-07T02:40:31;95703.19;;;9.89;75.51
77288;BME280;66345;42.694;23.346;2023-05-07T02:42:59;95701.66;;;9.94;76.14
77288;BME280;66345;42.694;23.346;2023-05-07T02:45:24;95702.47;;;9.95;76.32
77288;BME280;66345;42.694;23.346;2023-05-07T02:47:50;95697.16;;;9.95;76.96
77288;BME280;66345;42.694;23.346;2023-05-07T02:50:16;95696.97;;;9.96;76.93
77288;BME280;66345;42.694;23.346;2023-05-07T02:52:42;95700.81;;;9.94;77.46
77288;BME280;66345;42.694;23.346;2023-05-07T02:55:07;95706.44;;;9.99;77.79
77288;BME280;66345;42.694;23.346;2023-05-07T02:57:33;95706.69;;;10.04;77.70
77288;BME280;66345;42.694;23.346;2023-05-07T02:59:58;95713.66;;;10.05;77.40
77288;BME280;66345;42.694;23.346;2023-05-07T03:02:24;95717.88;;;10.14;77.57
77288;BME280;66345;42.694;23.346;2023-05-07T03:04:49;95717.13;;;10.06;77.28
77288;BME280;66345;42.694;23.346;2023-05-07T03:07:15;95708.72;;;10.02;77.55
77288;BME280;66345;42.694;23.346;2023-05-07T03:09:40;95722.16;;;10.00;78.40
77288;BME280;66345;42.694;23.346;2023-05-07T03:12:06;95715.53;;;9.96;78.47
77288;BME280;66345;42.694;23.346;2023-05-07T03:14:31;95728.28;;;10.01;78.49
77288;BME280;66345;42.694;23.346;2023-05-07T03:16:57;95723.19;;;10.14;78.29
77288;BME280;66345;42.694;23.346;2023-05-07T03:19:23;95724.63;;;10.02;78.18
77288;BME280;66345;42.694;23.346;2023-05-07T03:21:48;95735.88;;;10.19;77.82
77288;BME280;66345;42.694;23.346;2023-05-07T03:24:15;95732.97;;;10.14;78.30
77288;BME280;66345;42.694;23.346;2023-05-07T03:26:40;95734.50;;;10.08;78.52
77288;BME280;66345;42.694;23.346;2023-05-07T03:29:05;95736.97;;;10.10;78.44
77288;BME280;66345;42.694;23.346;2023-05-07T03:31:31;95734.47;;;9.93;78.84
77288;BME280;66345;42.694;23.346;2023-05-07T03:33:57;95735.00;;;9.89;79.14
77288;BME280;66345;42.694;23.346;2023-05-07T03:36:23;95738.88;;;10.01;78.29
77288;BME280;66345;42.694;23.346;2023-05-07T03:38:49;95741.44;;;10.09;78.57
77288;BME280;66345;42.694;23.346;2023-05-07T03:41:15;95745.50;;;10.20;78.45
77288;BME280;66345;42.694;23.346;2023-05-07T03:43:40;95743.00;;;10.41;77.21
77288;BME280;66345;42.694;23.346;2023-05-07T03:46:06;95747.66;;;10.39;77.47
77288;BME280;66345;42.694;23.346;2023-05-07T03:48:31;95745.66;;;10.41;77.12
77288;BME280;66345;42.694;23.346;2023-05-07T03:50:57;95741.34;;;10.25;77.42
77288;BME280;66345;42.694;23.346;2023-05-07T03:53:23;95749.94;;;10.27;77.80
77288;BME280;66345;42.694;23.346;2023-05-07T03:55:49;95749.53;;;10.53;77.13
77288;BME280;66345;42.694;23.346;2023-05-07T03:58:15;95748.59;;;10.46;77.28
77288;BME280;66345;42.694;23.346;2023-05-07T04:00:40;95768.34;;;10.29;77.65
77288;BME280;66345;42.694;23.346;2023-05-07T04:03:06;95762.75;;;10.39;77.83
77288;BME280;66345;42.694;23.346;2023-05-07T04:05:31;95759.59;;;10.58;77.14
77288;BME280;66345;42.694;23.346;2023-05-07T04:08:00;95760.94;;;10.54;76.71
77288;BME280;66345;42.694;23.346;2023-05-07T04:10:27;95757.47;;;10.53;75.41
77288;BME280;66345;42.694;23.346;2023-05-07T04:12:53;95777.41;;;10.64;74.49
77288;BME280;66345;42.694;23.346;2023-05-07T04:15:19;95778.25;;;10.65;73.90
77288;BME280;66345;42.694;23.346;2023-05-07T04:17:45;95781.72;;;10.50;73.79
77288;BME280;66345;42.694;23.346;2023-05-07T04:20:14;95788.50;;;10.53;74.13
77288;BME280;66345;42.694;23.346;2023-05-07T04:22:40;95795.25;;;10.55;74.45
77288;BME280;66345;42.694;23.346;2023-05-07T04:25:07;95790.34;;;10.67;73.20
77288;BME280;66345;42.694;23.346;2023-05-07T04:27:34;95788.97;;;10.71;72.70
77288;BME280;66345;42.694;23.346;2023-05-07T04:30:00;95796.00;;;10.79;72.17
77288;BME280;66345;42.694;23.346;2023-05-07T04:32:26;95798.03;;;11.06;71.46
77288;BME280;66345;42.694;23.346;2023-05-07T04:34:52;95799.41;;;10.88;71.80
77288;BME280;66345;42.694;23.346;2023-05-07T04:37:18;95797.84;;;10.93;71.66
77288;BME280;66345;42.694;23.346;2023-05-07T04:39:43;95813.69;;;11.01;71.38
77288;BME280;66345;42.694;23.346;2023-05-07T04:42:09;95814.59;;;11.38;70.71
77288;BME280;66345;42.694;23.346;2023-05-07T04:44:35;95802.84;;;11.32;69.86
77288;BME280;66345;42.694;23.346;2023-05-07T04:47:02;95802.00;;;11.47;69.51
77288;BME280;66345;42.694;23.346;2023-05-07T04:49:27;95798.63;;;11.53;69.69
77288;BME280;66345;42.694;23.346;2023-05-07T04:51:52;95806.00;;;11.72;68.61
77288;BME280;66345;42.694;23.346;2023-05-07T04:54:18;95803.13;;;11.88;68.26
77288;BME280;66345;42.694;23.346;2023-05-07T04:56:43;95801.00;;;12.20;67.35
77288;BME280;66345;42.694;23.346;2023-05-07T04:59:09;95803.97;;;12.10;67.93
77288;BME280;66345;42.694;23.346;2023-05-07T05:01:34;95809.53;;;12.37;67.63
77288;BME280;66345;42.694;23.346;2023-05-07T05:04:00;95810.63;;;13.05;66.03
77288;BME280;66345;42.694;23.346;2023-05-07T05:06:26;95793.06;;;14.66;59.58
77288;BME280;66345;42.694;23.346;2023-05-07T05:08:52;95788.50;;;15.13;58.00
77288;BME280;66345;42.694;23.346;2023-05-07T05:11:17;95787.22;;;16.18;55.21
77288;BME280;66345;42.694;23.346;2023-05-07T05:13:43;95783.50;;;16.76;52.83
77288;BME280;66345;42.694;23.346;2023-05-07T05:16:08;95777.22;;;18.64;48.07
77288;BME280;66345;42.694;23.346;2023-05-07T05:18:34;95786.28;;;18.81;47.38
77288;BME280;66345;42.694;23.346;2023-05-07T05:21:00;95784.44;;;20.09;44.19
77288;BME280;66345;42.694;23.346;2023-05-07T05:23:26;95783.38;;;20.10;44.31
77288;BME280;66345;42.694;23.346;2023-05-07T05:25:56;95782.19;;;21.13;41.42
77288;BME280;66345;42.694;23.346;2023-05-07T05:28:22;95785.88;;;20.57;42.24
77288;BME280;66345;42.694;23.346;2023-05-07T05:30:48;95792.19;;;19.77;43.67
77288;BME280;66345;42.694;23.346;2023-05-07T05:33:14;95788.75;;;20.38;44.14
77288;BME280;66345;42.694;23.346;2023-05-07T05:35:40;95796.69;;;20.90;43.04
77288;BME280;66345;42.694;23.346;2023-05-07T05:38:05;95792.13;;;22.66;38.76
77288;BME280;66345;42.694;23.346;2023-05-07T05:40:31;95785.22;;;24.17;35.34
77288;BME280;66345;42.694;23.346;2023-05-07T05:42:56;95793.75;;;22.62;37.89
77288;BME280;66345;42.694;23.346;2023-05-07T05:45:21;95790.47;;;23.71;36.34
77288;BME280;66345;42.694;23.346;2023-05-07T05:47:47;95791.66;;;22.42;39.23
77288;BME280;66345;42.694;23.346;2023-05-07T05:50:12;95785.63;;;22.94;38.55
77288;BME280;66345;42.694;23.346;2023-05-07T05:52:38;95796.34;;;22.03;39.33
77288;BME280;66345;42.694;23.346;2023-05-07T05:55:03;95792.53;;;22.48;38.70
77288;BME280;66345;42.694;23.346;2023-05-07T05:57:29;95789.69;;;23.34;37.38
77288;BME280;66345;42.694;23.346;2023-05-07T05:59:55;95795.66;;;24.61;34.60
77288;BME280;66345;42.694;23.346;2023-05-07T06:02:21;95789.66;;;25.51;33.06
77288;BME280;66345;42.694;23.346;2023-05-07T06:04:46;95788.06;;;23.75;36.69
77288;BME280;66345;42.694;23.346;2023-05-07T06:07:12;95796.09;;;23.60;37.21
77288;BME280;66345;42.694;23.346;2023-05-07T06:09:37;95795.63;;;25.58;32.70
77288;BME280;66345;42.694;23.346;2023-05-07T06:12:03;95788.06;;;26.19;31.82
77288;BME280;66345;42.694;23.346;2023-05-07T06:14:28;95789.81;;;23.54;36.21
77288;BME280;66345;42.694;23.346;2023-05-07T06:16:53;95789.09;;;24.37;34.98
77288;BME280;66345;42.694;23.346;2023-05-07T06:19:19;95797.06;;;24.94;33.74
77288;BME280;66345;42.694;23.346;2023-05-07T06:21:48;95786.88;;;25.86;32.24
77288;BME280;66345;42.694;23.346;2023-05-07T06:24:14;95776.88;;;26.26;31.27
77288;BME280;66345;42.694;23.346;2023-05-07T06:26:39;95784.25;;;24.84;34.26
77288;BME280;66345;42.694;23.346;2023-05-07T06:29:06;95773.78;;;26.48;31.20
77288;BME280;66345;42.694;23.346;2023-05-07T06:31:31;95771.09;;;27.16;30.38
77288;BME280;66345;42.694;23.346;2023-05-07T06:33:57;95774.78;;;27.30;30.22
77288;BME280;66345;42.694;23.346;2023-05-07T06:36:23;95772.78;;;25.54;33.17
77288;BME280;66345;42.694;23.346;2023-05-07T06:38:48;95778.53;;;25.47;33.04
77288;BME280;66345;42.694;23.346;2023-05-07T06:41:13;95766.28;;;26.69;31.11
77288;BME280;66345;42.694;23.346;2023-05-07T06:43:39;95769.66;;;27.53;29.38
77288;BME280;66345;42.694;23.346;2023-05-07T06:46:04;95761.69;;;27.56;29.38
77288;BME280;66345;42.694;23.346;2023-05-07T06:48:32;95750.44;;;27.63;29.65
77288;BME280;66345;42.694;23.346;2023-05-07T06:50:57;95754.13;;;28.95;27.59
77288;BME280;66345;42.694;23.346;2023-05-07T06:53:23;95752.75;;;28.41;27.58
77288;BME280;66345;42.694;23.346;2023-05-07T06:55:49;95743.47;;;28.42;28.09
77288;BME280;66345;42.694;23.346;2023-05-07T06:58:14;95749.75;;;29.27;26.80
77288;BME280;66345;42.694;23.346;2023-05-07T07:00:40;95755.84;;;26.42;30.60
77288;BME280;66345;42.694;23.346;2023-05-07T07:03:06;95749.50;;;28.58;28.46
77288;BME280;66345;42.694;23.346;2023-05-07T07:05:31;95750.16;;;30.44;25.11
77288;BME280;66345;42.694;23.346;2023-05-07T07:07:57;95750.81;;;28.80;27.90
77288;BME280;66345;42.694;23.346;2023-05-07T07:10:23;95750.81;;;30.27;25.29
77288;BME280;66345;42.694;23.346;2023-05-07T07:12:49;95744.13;;;30.33;25.21
77288;BME280;66345;42.694;23.346;2023-05-07T07:15:15;95750.97;;;30.08;24.85
77288;BME280;66345;42.694;23.346;2023-05-07T07:17:41;95746.22;;;28.75;27.66
77288;BME280;66345;42.694;23.346;2023-05-07T07:20:07;95740.41;;;31.19;24.19
77288;BME280;66345;42.694;23.346;2023-05-07T07:22:33;95746.38;;;29.16;26.90
77288;BME280;66345;42.694;23.346;2023-05-07T07:24:59;95737.34;;;30.31;25.48
77288;BME280;66345;42.694;23.346;2023-05-07T07:27:24;95734.72;;;32.26;22.60
77288;BME280;66345;42.694;23.346;2023-05-07T07:29:50;95741.72;;;30.18;25.49
77288;BME280;66345;42.694;23.346;2023-05-07T07:32:15;95736.00;;;30.64;24.82
77288;BME280;66345;42.694;23.346;2023-05-07T07:34:41;95736.19;;;30.68;24.89
77288;BME280;66345;42.694;23.346;2023-05-07T07:37:06;95737.94;;;31.31;24.05
77288;BME280;66345;42.694;23.346;2023-05-07T07:39:32;95739.56;;;32.12;22.42
77288;BME280;66345;42.694;23.346;2023-05-07T07:41:59;95742.53;;;31.44;22.91
77288;BME280;66345;42.694;23.346;2023-05-07T07:44:25;95745.66;;;29.98;24.48
77288;BME280;66345;42.694;23.346;2023-05-07T07:46:50;95742.09;;;30.61;25.05
77288;BME280;66345;42.694;23.346;2023-05-07T07:49:16;95746.78;;;30.61;24.46
77288;BME280;66345;42.694;23.346;2023-05-07T07:51:41;95743.63;;;30.90;24.83
77288;BME280;66345;42.694;23.346;2023-05-07T07:54:07;95738.75;;;31.09;24.02
77288;BME280;66345;42.694;23.346;2023-05-07T07:56:33;95749.53;;;31.06;23.60
77288;BME280;66345;42.694;23.346;2023-05-07T07:58:59;95742.34;;;32.29;21.44
77288;BME280;66345;42.694;23.346;2023-05-07T08:01:24;95736.59;;;33.00;20.92
77288;BME280;66345;42.694;23.346;2023-05-07T08:03:50;95731.72;;;32.71;21.32
77288;BME280;66345;42.694;23.346;2023-05-07T08:06:15;95736.09;;;34.59;19.28
77288;BME280;66345;42.694;23.346;2023-05-07T08:08:41;95735.03;;;33.37;20.56
77288;BME280;66345;42.694;23.346;2023-05-07T08:11:06;95739.31;;;32.56;22.00
77288;BME280;66345;42.694;23.346;2023-05-07T08:13:32;95735.53;;;34.24;19.66
77288;BME280;66345;42.694;23.346;2023-05-07T08:15:57;95738.91;;;34.21;20.04
77288;BME280;66345;42.694;23.346;2023-05-07T08:18:22;95735.84;;;32.16;22.29
77288;BME280;66345;42.694;23.346;2023-05-07T08:20:50;95729.69;;;30.78;23.99
77288;BME280;66345;42.694;23.346;2023-05-07T08:23:15;95728.56;;;29.05;26.62
77288;BME280;66345;42.694;23.346;2023-05-07T08:25:41;95720.00;;;31.65;23.38
77288;BME280;66345;42.694;23.346;2023-05-07T08:28:08;95728.88;;;31.22;23.63
77288;BME280;66345;42.694;23.346;2023-05-07T08:30:33;95721.06;;;31.78;22.57
77288;BME280;66345;42.694;23.346;2023-05-07T08:33:00;95714.59;;;32.91;21.60
77288;BME280;66345;42.694;23.346;2023-05-07T08:35:25;95717.28;;;33.17;21.41
77288;BME280;66345;42.694;23.346;2023-05-07T08:37:52;95706.50;;;32.60;22.05
77288;BME280;66345;42.694;23.346;2023-05-07T08:40:17;95714.81;;;34.18;19.49
77288;BME280;66345;42.694;23.346;2023-05-07T08:42:44;95707.16;;;32.74;20.69
77288;BME280;66345;42.694;23.346;2023-05-07T08:45:10;95707.09;;;33.26;21.00
77288;BME280;66345;42.694;23.346;2023-05-07T08:47:43;95708.78;;;29.82;24.76
77288;BME280;66345;42.694;23.346;2023-05-07T08:50:11;95711.66;;;31.30;22.62
77288;BME280;66345;42.694;23.346;2023-05-07T08:52:37;95703.81;;;31.86;20.86
77288;BME280;66345;42.694;23.346;2023-05-07T08:55:03;95704.50;;;32.09;20.81
77288;BME280;66345;42.694;23.346;2023-05-07T08:57:28;95690.81;;;32.95;20.42
77288;BME280;66345;42.694;23.346;2023-05-07T08:59:54;95687.50;;;34.88;18.50
77288;BME280;66345;42.694;23.346;2023-05-07T09:02:19;95692.06;;;35.04;17.77
77288;BME280;66345;42.694;23.346;2023-05-07T09:04:45;95687.84;;;35.77;17.50
77288;BME280;66345;42.694;23.346;2023-05-07T09:07:11;95693.59;;;34.39;18.11
77288;BME280;66345;42.694;23.346;2023-05-07T09:09:37;95684.13;;;35.03;17.81
77288;BME280;66345;42.694;23.346;2023-05-07T09:12:03;95681.25;;;36.18;16.20
77288;BME280;66345;42.694;23.346;2023-05-07T09:14:29;95674.94;;;35.56;17.28
77288;BME280;66345;42.694;23.346;2023-05-07T09:16:56;95669.81;;;35.22;18.08
77288;BME280;66345;42.694;23.346;2023-05-07T09:19:25;95672.66;;;34.38;18.13
77288;BME280;66345;42.694;23.346;2023-05-07T09:22:01;95664.38;;;34.38;18.26
77288;BME280;66345;42.694;23.346;2023-05-07T09:24:27;95672.47;;;34.64;17.75
77288;BME280;66345;42.694;23.346;2023-05-07T09:27:00;95669.69;;;33.72;18.92
77288;BME280;66345;42.694;23.346;2023-05-07T09:29:27;95666.53;;;33.82;18.71
77288;BME280;66345;42.694;23.346;2023-05-07T09:31:54;95656.19;;;35.50;17.35
77288;BME280;66345;42.694;23.346;2023-05-07T09:34:20;95647.56;;;36.00;16.21
77288;BME280;66345;42.694;23.346;2023-05-07T09:36:45;95648.22;;;36.09;16.42
77288;BME280;66345;42.694;23.346;2023-05-07T09:39:13;95653.13;;;32.18;19.31
77288;BME280;66345;42.694;23.346;2023-05-07T09:41:45;95665.22;;;29.72;21.97
77288;BME280;66345;42.694;23.346;2023-05-07T09:44:12;95651.19;;;30.82;21.42
77288;BME280;66345;42.694;23.346;2023-05-07T09:46:39;95648.75;;;31.42;20.95
77288;BME280;66345;42.694;23.346;2023-05-07T09:49:07;95646.44;;;30.51;21.59
77288;BME280;66345;42.694;23.346;2023-05-07T09:51:48;95635.66;;;31.88;20.20
77288;BME280;66345;42.694;23.346;2023-05-07T09:54:15;95639.41;;;34.43;17.34
77288;BME280;66345;42.694;23.346;2023-05-07T09:56:40;95631.91;;;35.43;16.63
77288;BME280;66345;42.694;23.346;2023-05-07T09:59:12;95635.13;;;35.57;16.59
77288;BME280;66345;42.694;23.346;2023-05-07T10:01:38;95629.00;;;35.40;16.24
77288;BME280;66345;42.694;23.346;2023-05-07T10:04:06;95630.88;;;33.65;17.92
77288;BME280;66345;42.694;23.346;2023-05-07T10:06:34;95634.13;;;33.88;18.03
77288;BME280;66345;42.694;23.346;2023-05-07T10:09:00;95626.00;;;32.16;18.74
77288;BME280;66345;42.694;23.346;2023-05-07T10:11:25;95627.03;;;30.39;20.69
77288;BME280;66345;42.694;23.346;2023-05-07T10:13:52;95629.63;;;30.89;19.92
77288;BME280;66345;42.694;23.346;2023-05-07T10:16:18;95620.97;;;30.96;19.61
77288;BME280;66345;42.694;23.346;2023-05-07T10:18:44;95613.72;;;34.52;17.17
77288;BME280;66345;42.694;23.346;2023-05-07T10:21:18;95615.63;;;33.97;17.01
77288;BME280;66345;42.694;23.346;2023-05-07T10:23:46;95603.91;;;34.21;16.99
77288;BME280;66345;42.694;23.346;2023-05-07T10:26:14;95608.81;;;32.71;18.24
77288;BME280;66345;42.694;23.346;2023-05-07T10:28:42;95615.50;;;33.17;17.44
77288;BME280;66345;42.694;23.346;2023-05-07T10:34:21;95600.25;;;30.58;19.71
77288;BME280;66345;42.694;23.346;2023-05-07T10:36:49;95598.66;;;29.99;20.12
77288;BME280;66345;42.694;23.346;2023-05-07T10:39:15;95593.28;;;29.44;21.13
77288;BME280;66345;42.694;23.346;2023-05-07T10:41:41;95596.66;;;28.53;23.45
77288;BME280;66345;42.694;23.346;2023-05-07T10:44:06;95598.13;;;26.21;24.98
77288;BME280;66345;42.694;23.346;2023-05-07T10:46:32;95598.25;;;25.17;26.62
77288;BME280;66345;42.694;23.346;2023-05-07T10:51:30;95582.16;;;25.26;26.02
77288;BME280;66345;42.694;23.346;2023-05-07T10:56:38;95588.59;;;24.60;27.59
77288;BME280;66345;42.694;23.346;2023-05-07T11:01:57;95583.72;;;24.22;29.03
77288;BME280;66345;42.694;23.346;2023-05-07T11:04:23;95574.34;;;24.99;26.86
77288;BME280;66345;42.694;23.346;2023-05-07T11:17:33;95577.72;;;24.66;28.41
77288;BME280;66345;42.694;23.346;2023-05-07T11:20:01;95572.75;;;25.03;26.35
77288;BME280;66345;42.694;23.346;2023-05-07T11:25:06;95573.81;;;25.12;25.42
77288;BME280;66345;42.694;23.346;2023-05-07T11:27:32;95559.19;;;25.03;26.58
77288;BME280;66345;42.694;23.346;2023-05-07T11:29:58;95567.66;;;24.76;26.41
77288;BME280;66345;42.694;23.346;2023-05-07T11:32:24;95560.44;;;24.41;27.27
77288;BME280;66345;42.694;23.346;2023-05-07T11:34:54;95566.88;;;24.66;26.23
77288;BME280;66345;42.694;23.346;2023-05-07T11:37:21;95572.84;;;24.73;26.92
77288;BME280;66345;42.694;23.346;2023-05-07T11:39:47;95563.13;;;24.36;25.82
77288;BME280;66345;42.694;23.346;2023-05-07T11:42:33;95561.53;;;24.35;26.95
77288;BME280;66345;42.694;23.346;2023-05-07T11:44:59;95547.13;;;24.19;26.34
77288;BME280;66345;42.694;23.346;2023-05-07T11:47:26;95551.44;;;24.46;27.58
77288;BME280;66345;42.694;23.346;2023-05-07T11:49:54;95561.72;;;24.64;27.50
77288;BME280;66345;42.694;23.346;2023-05-07T11:52:22;95559.03;;;24.64;27.09
77288;BME280;66345;42.694;23.346;2023-05-07T11:54:55;95553.28;;;24.71;26.77
77288;BME280;66345;42.694;23.346;2023-05-07T11:57:23;95557.13;;;24.59;25.60
77288;BME280;66345;42.694;23.346;2023-05-07T11:59:53;95538.59;;;24.82;27.15
77288;BME280;66345;42.694;23.346;2023-05-07T12:02:19;95542.16;;;24.67;26.37
77288;BME280;66345;42.694;23.346;2023-05-07T12:04:44;95532.66;;;24.75;27.00
77288;BME280;66345;42.694;23.346;2023-05-07T12:07:14;95537.84;;;24.61;25.84
77288;BME280;66345;42.694;23.346;2023-05-07T12:09:44;95531.03;;;24.63;25.83
77288;BME280;66345;42.694;23.346;2023-05-07T12:12:10;95524.75;;;24.83;25.71
77288;BME280;66345;42.694;23.346;2023-05-07T12:14:40;95526.41;;;24.79;26.56
77288;BME280;66345;42.694;23.346;2023-05-07T12:17:07;95528.72;;;24.11;26.10
77288;BME280;66345;42.694;23.346;2023-05-07T12:19:36;95530.59;;;24.36;25.30
77288;BME280;66345;42.694;23.346;2023-05-07T12:22:03;95532.22;;;24.42;26.50
77288;BME280;66345;42.694;23.346;2023-05-07T12:24:29;95524.31;;;24.51;27.14
77288;BME280;66345;42.694;23.346;2023-05-07T12:26:54;95518.94;;;24.35;25.83
77288;BME280;66345;42.694;23.346;2023-05-07T12:29:23;95513.13;;;24.62;24.70
77288;BME280;66345;42.694;23.346;2023-05-07T12:31:50;95502.56;;;24.56;25.11
77288;BME280;66345;42.694;23.346;2023-05-07T12:34:15;95510.72;;;24.56;23.92
77288;BME280;66345;42.694;23.346;2023-05-07T12:36:41;95503.72;;;24.45;23.98
77288;BME280;66345;42.694;23.346;2023-05-07T12:39:08;95514.31;;;24.36;24.16
77288;BME280;66345;42.694;23.346;2023-05-07T12:41:56;95511.34;;;24.07;23.93
77288;BME280;66345;42.694;23.346;2023-05-07T12:44:22;95500.25;;;23.63;24.59
77288;BME280;66345;42.694;23.346;2023-05-07T12:46:49;95494.28;;;23.96;24.63
77288;BME280;66345;42.694;23.346;2023-05-07T12:49:14;95489.94;;;23.95;25.44
77288;BME280;66345;42.694;23.346;2023-05-07T12:51:40;95499.41;;;24.08;25.52
77288;BME280;66345;42.694;23.346;2023-05-07T12:54:05;95491.56;;;23.91;25.43
77288;BME280;66345;42.694;23.346;2023-05-07T12:56:31;95482.63;;;23.91;25.83
77288;BME280;66345;42.694;23.346;2023-05-07T12:58:57;95477.47;;;24.04;25.21
77288;BME280;66345;42.694;23.346;2023-05-07T13:01:29;95478.56;;;23.98;27.05
77288;BME280;66345;42.694;23.346;2023-05-07T13:04:03;95476.38;;;23.95;25.11
77288;BME280;66345;42.694;23.346;2023-05-07T13:06:29;95475.56;;;24.00;25.33
77288;BME280;66345;42.694;23.346;2023-05-07T13:08:55;95467.72;;;24.03;24.72
77288;BME280;66345;42.694;23.346;2023-05-07T13:11:21;95467.13;;;24.17;24.74
77288;BME280;66345;42.694;23.346;2023-05-07T13:13:46;95459.78;;;24.27;24.73